Time;durP1;ratioP1;P1;durP2;ratioP2;P2;SDS_P1;SDS_P2;PMS_P1;PMS_P2;Temp;Humidity;BMP_temperature;BMP_pressure;BME280_temperature;BME280_humidity;BME280_pressure;Samples;Min_cycle;Max_cycle;Signal;HPM_P1;HPM_P2
2023/06/15 00:01:40;;;;;;;7.22;3.20;;;14.90;99.90;;;;;;5067765;28;20041;-73
2023/06/15 00:04:06;;;;;;;6.07;3.13;;;15.00;99.90;;;;;;5057484;28;20079;-75
2023/06/15 00:06:32;;;;;;;5.07;3.08;;;14.90;99.90;;;;;;5052228;28;20044;-74
2023/06/15 00:08:58;;;;;;;3.33;2.90;;;15.00;99.90;;;;;;5033538;28;20049;-72
2023/06/15 00:11:24;;;;;;;5.75;3.70;;;15.10;99.90;;;;;;5049948;28;20036;-73
2023/06/15 00:13:50;;;;;;;3.28;2.90;;;15.00;99.90;;;;;;5062840;28;20124;-70
2023/06/15 00:16:18;;;;;;;4.20;3.28;;;15.00;99.90;;;;;;5037565;28;20194;-72
2023/06/15 00:18:54;;;;;;;4.72;3.38;;;15.00;99.90;;;;;;5068937;28;20033;-73
2023/06/15 00:21:22;;;;;;;3.45;2.95;;;15.00;99.90;;;;;;5067790;28;20044;-73
2023/06/15 00:23:48;;;;;;;3.97;3.17;;;15.00;99.90;;;;;;5066144;28;20676;-73
2023/06/15 00:26:14;;;;;;;5.28;3.65;;;15.10;99.90;;;;;;5048458;28;20120;-75
2023/06/15 00:28:40;;;;;;;8.48;3.90;;;15.20;99.90;;;;;;5051458;28;20060;-74
2023/06/15 00:31:06;;;;;;;5.82;3.00;;;15.20;99.90;;;;;;5059566;28;20041;-69
2023/06/15 00:33:31;;;;;;;3.85;3.05;;;15.20;99.90;;;;;;5064934;28;20463;-70
2023/06/15 00:36:00;;;;;;;5.43;3.40;;;15.20;99.90;;;;;;5046353;28;20036;-73
2023/06/15 00:38:26;;;;;;;3.90;3.50;;;15.20;99.90;;;;;;5043646;28;20577;-69
2023/06/15 00:40:52;;;;;;;4.72;3.40;;;15.10;99.90;;;;;;5062542;28;20171;-75
2023/06/15 00:43:21;;;;;;;6.63;3.70;;;15.20;99.90;;;;;;5060015;28;20044;-70
2023/06/15 00:45:47;;;;;;;4.82;3.25;;;15.20;99.90;;;;;;5055294;28;20752;-72
2023/06/15 00:48:13;;;;;;;5.00;3.60;;;15.20;99.90;;;;;;5050567;28;20045;-73
2023/06/15 00:50:41;;;;;;;3.95;3.50;;;15.20;99.90;;;;;;5096979;28;20053;-72
2023/06/15 00:53:10;;;;;;;4.90;3.70;;;15.20;99.90;;;;;;5059986;28;20044;-71
2023/06/15 00:55:37;;;;;;;6.20;3.65;;;15.20;99.90;;;;;;5055598;28;20044;-73
2023/06/15 00:58:03;;;;;;;7.28;3.40;;;15.20;99.90;;;;;;5066948;28;20067;-72
2023/06/15 01:00:35;;;;;;;5.72;3.63;;;15.20;99.90;;;;;;5094899;28;20040;-73
2023/06/15 01:03:04;;;;;;;6.97;4.28;;;15.10;99.90;;;;;;5052808;28;20401;-73
2023/06/15 01:05:32;;;;;;;8.15;4.07;;;15.10;99.90;;;;;;5055471;28;20091;-71
2023/06/15 01:08:01;;;;;;;6.97;3.72;;;15.10;99.90;;;;;;5069619;28;20532;-70
2023/06/15 01:10:31;;;;;;;5.53;3.70;;;15.10;99.90;;;;;;5067393;28;20043;-68
2023/06/15 01:12:57;;;;;;;4.47;3.50;;;15.10;99.90;;;;;;5046639;28;20052;-71
2023/06/15 01:15:24;;;;;;;5.97;3.72;;;15.10;99.90;;;;;;5073322;28;20718;-71
2023/06/15 01:17:55;;;;;;;5.75;3.72;;;15.10;99.90;;;;;;5048784;28;20041;-71
2023/06/15 01:20:39;;;;;;;8.18;3.92;;;15.10;99.90;;;;;;5051945;28;20032;-72
2023/06/15 01:23:21;;;;;;;7.03;4.03;;;15.10;99.90;;;;;;5081292;28;20056;-74
2023/06/15 01:25:49;;;;;;;5.43;3.53;;;15.00;99.90;;;;;;5091944;28;20298;-74
2023/06/15 01:28:23;;;;;;;8.13;4.07;;;15.00;99.90;;;;;;5066182;28;20052;-70
2023/06/15 01:30:52;;;;;;;6.60;3.63;;;15.00;99.90;;;;;;5060002;28;20037;-72
2023/06/15 01:33:20;;;;;;;5.95;3.65;;;14.90;99.90;;;;;;5066747;28;20686;-71
2023/06/15 01:35:45;;;;;;;4.60;3.90;;;15.00;99.90;;;;;;5067560;28;20089;-73
2023/06/15 01:38:11;;;;;;;4.63;3.47;;;14.90;99.90;;;;;;5063438;28;20102;-70
2023/06/15 01:40:40;;;;;;;7.28;3.83;;;14.80;99.90;;;;;;5042837;28;20037;-73
2023/06/15 01:43:11;;;;;;;7.97;4.53;;;14.70;99.90;;;;;;5085795;28;20051;-72
2023/06/15 01:45:39;;;;;;;6.22;3.90;;;14.60;99.90;;;;;;5066493;28;20044;-72
2023/06/15 01:48:06;;;;;;;5.43;3.90;;;14.50;99.90;;;;;;5046786;28;20055;-70
2023/06/15 01:50:34;;;;;;;5.45;3.53;;;14.50;99.90;;;;;;5050240;28;20131;-73
2023/06/15 01:53:00;;;;;;;5.43;4.07;;;14.40;99.90;;;;;;5067026;28;20059;-71
2023/06/15 01:55:26;;;;;;;4.35;3.70;;;14.30;99.90;;;;;;5062996;28;20033;-74
2023/06/15 01:57:53;;;;;;;5.10;4.35;;;14.20;99.90;;;;;;5032074;28;20036;-72
2023/06/15 02:00:20;;;;;;;5.72;4.00;;;14.10;99.90;;;;;;5067915;28;20039;-75
2023/06/15 02:02:46;;;;;;;5.55;4.20;;;14.00;99.90;;;;;;5067656;28;20037;-73
2023/06/15 02:05:11;;;;;;;5.72;4.07;;;14.00;99.90;;;;;;5064074;28;20060;-75
2023/06/15 02:07:37;;;;;;;5.85;3.92;;;13.90;99.90;;;;;;5063259;28;20056;-73
2023/06/15 02:10:03;;;;;;;4.95;4.22;;;13.80;99.90;;;;;;5066677;28;20119;-73
2023/06/15 02:12:30;;;;;;;4.40;3.83;;;13.80;99.90;;;;;;5034264;28;20028;-74
2023/06/15 02:14:55;;;;;;;4.38;3.92;;;13.70;99.90;;;;;;5065778;28;20036;-76
2023/06/15 02:17:24;;;;;;;6.15;4.32;;;13.80;99.90;;;;;;5067458;28;20123;-75
2023/06/15 02:19:50;;;;;;;5.97;4.18;;;13.70;99.90;;;;;;5066270;28;20045;-72
2023/06/15 02:22:15;;;;;;;6.03;4.32;;;13.80;99.90;;;;;;5032478;28;20041;-73
2023/06/15 02:24:44;;;;;;;6.35;4.28;;;13.80;99.90;;;;;;5064883;28;20553;-73
2023/06/15 02:27:10;;;;;;;9.18;4.18;;;13.80;99.90;;;;;;5032090;28;20047;-76
2023/06/15 02:29:35;;;;;;;7.03;4.45;;;13.70;99.90;;;;;;5054070;28;20045;-76
2023/06/15 02:32:01;;;;;;;5.70;4.30;;;13.80;99.90;;;;;;5068664;28;20442;-70
2023/06/15 02:34:27;;;;;;;6.90;4.80;;;13.70;99.90;;;;;;5066363;28;20036;-70
2023/06/15 02:36:53;;;;;;;7.30;4.35;;;13.70;99.90;;;;;;5068082;28;20048;-70
2023/06/15 02:39:20;;;;;;;7.28;4.78;;;13.70;99.90;;;;;;5060225;28;20040;-74
2023/06/15 02:41:46;;;;;;;4.82;3.97;;;13.70;99.90;;;;;;5051668;28;20583;-74
2023/06/15 02:44:12;;;;;;;6.20;4.22;;;13.70;99.90;;;;;;5051813;28;20053;-76
2023/06/15 02:46:37;;;;;;;4.70;4.07;;;13.70;99.90;;;;;;5048912;28;20041;-73
2023/06/15 02:49:04;;;;;;;4.70;3.88;;;13.70;99.90;;;;;;5031289;28;20075;-73
2023/06/15 02:51:31;;;;;;;5.93;4.40;;;13.60;99.90;;;;;;5047911;28;20049;-72
2023/06/15 02:53:56;;;;;;;5.78;4.55;;;13.60;99.90;;;;;;5050701;28;20041;-71
2023/06/15 02:56:22;;;;;;;6.55;4.50;;;13.60;99.90;;;;;;5037654;28;20071;-75
2023/06/15 02:58:53;;;;;;;5.38;4.30;;;13.60;99.90;;;;;;5064593;28;20087;-73
2023/06/15 03:01:21;;;;;;;5.97;4.47;;;13.50;99.90;;;;;;5042235;28;20037;-73
2023/06/15 03:03:47;;;;;;;5.82;4.47;;;13.50;99.90;;;;;;5047912;28;20063;-74
2023/06/15 03:06:16;;;;;;;5.25;4.50;;;13.50;99.90;;;;;;5047633;28;20072;-74
2023/06/15 03:08:43;;;;;;;5.78;4.88;;;13.60;99.90;;;;;;5075891;28;20047;-73
2023/06/15 03:11:09;;;;;;;6.43;4.80;;;13.60;99.90;;;;;;5048819;28;20072;-74
2023/06/15 03:13:35;;;;;;;6.82;4.13;;;13.50;99.90;;;;;;5050432;28;20044;-74
2023/06/15 03:16:07;;;;;;;9.40;5.07;;;13.60;99.90;;;;;;5040821;28;20033;-73
2023/06/15 03:18:32;;;;;;;7.20;4.47;;;13.70;99.90;;;;;;5064104;28;20045;-78
2023/06/15 03:20:58;;;;;;;5.53;4.22;;;13.80;99.90;;;;;;5052768;28;20045;-72
2023/06/15 03:23:24;;;;;;;8.32;4.53;;;13.80;99.90;;;;;;5047433;28;20041;-71
2023/06/15 03:25:51;;;;;;;6.50;4.53;;;13.90;99.90;;;;;;5054391;28;20071;-77
2023/06/15 03:28:19;;;;;;;9.25;5.20;;;13.80;99.90;;;;;;5053789;28;20124;-75
2023/06/15 03:30:48;;;;;;;6.55;4.93;;;13.80;99.90;;;;;;5066237;28;20119;-74
2023/06/15 03:33:16;;;;;;;6.10;4.78;;;13.70;99.90;;;;;;5050800;28;20075;-74
2023/06/15 03:35:42;;;;;;;7.18;5.05;;;13.60;99.90;;;;;;5044966;28;20473;-72
2023/06/15 03:38:08;;;;;;;10.02;4.78;;;13.70;99.90;;;;;;5032147;28;20098;-72
2023/06/15 03:40:37;;;;;;;8.73;5.32;;;13.70;99.90;;;;;;5047213;28;20071;-72
2023/06/15 03:43:03;;;;;;;5.50;4.82;;;13.60;99.90;;;;;;5066737;28;20044;-75
2023/06/15 03:45:29;;;;;;;5.95;4.95;;;13.60;99.90;;;;;;5043488;28;20056;-74
2023/06/15 03:47:55;;;;;;;6.35;4.82;;;13.50;99.90;;;;;;5055907;28;20496;-73
2023/06/15 03:50:20;;;;;;;6.60;5.00;;;13.50;99.90;;;;;;5068270;28;20517;-72
2023/06/15 03:52:46;;;;;;;5.15;4.63;;;13.60;99.90;;;;;;5045257;28;20498;-75
2023/06/15 03:55:13;;;;;;;6.00;5.07;;;13.60;99.90;;;;;;5069301;28;20050;-71
2023/06/15 03:57:38;;;;;;;7.60;5.22;;;13.60;99.90;;;;;;5045266;28;20045;-72
2023/06/15 04:00:07;;;;;;;5.95;5.05;;;13.70;99.90;;;;;;5036852;28;20081;-72
2023/06/15 04:02:33;;;;;;;6.03;4.47;;;13.70;99.90;;;;;;5062953;28;20063;-75
2023/06/15 04:05:00;;;;;;;5.20;4.53;;;13.80;99.90;;;;;;5054139;28;20044;-72
2023/06/15 04:07:28;;;;;;;7.57;4.95;;;13.90;99.90;;;;;;5055596;28;20115;-73
2023/06/15 04:09:53;;;;;;;7.00;4.78;;;13.90;99.90;;;;;;5053835;28;20361;-76
2023/06/15 04:12:19;;;;;;;8.55;5.43;;;14.00;99.90;;;;;;5063946;28;20036;-71
2023/06/15 04:14:46;;;;;;;6.07;5.05;;;14.10;99.90;;;;;;5070241;28;20399;-72
2023/06/15 04:17:12;;;;;;;7.07;5.30;;;14.20;99.90;;;;;;5043097;28;20481;-76
2023/06/15 04:19:37;;;;;;;8.23;5.15;;;14.30;99.90;;;;;;5050646;28;20045;-73
2023/06/15 04:22:03;;;;;;;10.23;5.05;;;14.40;99.90;;;;;;5090416;28;20051;-73
2023/06/15 04:24:29;;;;;;;5.95;4.68;;;14.40;99.90;;;;;;5083886;28;20507;-71
2023/06/15 04:26:57;;;;;;;8.30;4.57;;;14.40;99.90;;;;;;5084016;28;20071;-75
2023/06/15 04:29:22;;;;;;;6.20;4.80;;;14.40;99.90;;;;;;5050082;28;20041;-72
2023/06/15 04:31:54;;;;;;;7.15;5.00;;;14.30;99.90;;;;;;5037675;28;20456;-73
2023/06/15 04:34:22;;;;;;;10.73;4.65;;;14.30;99.90;;;;;;5044156;28;20048;-72
2023/06/15 04:36:48;;;;;;;6.03;4.95;;;14.20;99.90;;;;;;5067255;28;20112;-72
2023/06/15 04:39:14;;;;;;;7.10;4.65;;;14.30;99.90;;;;;;5062815;28;20045;-73
2023/06/15 04:41:40;;;;;;;5.68;4.68;;;14.30;99.90;;;;;;5052812;28;20072;-73
2023/06/15 04:44:06;;;;;;;7.20;5.43;;;14.30;99.90;;;;;;5040911;28;20122;-76
2023/06/15 04:46:32;;;;;;;5.90;4.88;;;14.30;99.90;;;;;;5081087;28;20044;-72
2023/06/15 04:49:00;;;;;;;8.55;5.50;;;14.30;99.90;;;;;;5067535;28;20080;-77
2023/06/15 04:51:26;;;;;;;7.50;6.00;;;14.40;99.90;;;;;;5049066;28;20057;-73
2023/06/15 04:53:52;;;;;;;7.63;5.55;;;14.40;99.90;;;;;;5040888;28;20032;-76
2023/06/15 04:56:17;;;;;;;10.13;5.90;;;14.40;99.90;;;;;;5070176;28;20041;-75
2023/06/15 04:58:43;;;;;;;5.97;4.75;;;14.50;99.90;;;;;;5050435;28;20044;-72
2023/06/15 05:01:09;;;;;;;7.78;4.95;;;14.60;99.90;;;;;;5066713;28;20038;-75
2023/06/15 05:03:35;;;;;;;11.38;5.63;;;14.70;99.90;;;;;;5051075;28;20449;-75
2023/06/15 05:06:00;;;;;;;5.93;5.30;;;14.80;99.90;;;;;;5065800;28;20045;-76
2023/06/15 05:08:26;;;;;;;7.47;5.30;;;14.80;99.90;;;;;;5075601;28;20098;-77
2023/06/15 05:10:52;;;;;;;7.63;5.18;;;15.00;99.90;;;;;;5060227;28;20483;-76
2023/06/15 05:13:18;;;;;;;6.22;5.03;;;15.10;99.90;;;;;;5034304;28;20115;-78
2023/06/15 05:15:43;;;;;;;6.13;5.15;;;15.30;99.90;;;;;;5033453;28;20042;-73
2023/06/15 05:18:09;;;;;;;7.50;4.97;;;15.40;99.90;;;;;;5052384;28;20040;-73
2023/06/15 05:20:35;;;;;;;7.55;4.88;;;15.50;99.90;;;;;;5053632;28;20043;-76
2023/06/15 05:23:00;;;;;;;5.95;4.82;;;15.70;99.90;;;;;;5051116;28;20097;-79
2023/06/15 05:25:26;;;;;;;6.30;4.35;;;15.70;99.90;;;;;;5048684;28;20048;-72
2023/06/15 05:27:51;;;;;;;7.95;4.68;;;15.80;99.90;;;;;;5054994;28;20047;-75
2023/06/15 05:30:17;;;;;;;5.15;3.97;;;15.90;99.90;;;;;;5038047;28;20040;-72
2023/06/15 05:32:43;;;;;;;6.25;4.78;;;16.10;99.90;;;;;;5071018;28;20063;-72
2023/06/15 05:35:09;;;;;;;5.45;4.03;;;16.30;99.90;;;;;;5037831;28;20045;-77
2023/06/15 05:37:35;;;;;;;8.05;4.65;;;16.30;99.90;;;;;;5042712;28;20050;-76
2023/06/15 05:40:03;;;;;;;7.82;4.13;;;16.50;99.90;;;;;;5059620;28;20053;-75
2023/06/15 05:42:29;;;;;;;6.68;4.38;;;16.70;99.90;;;;;;5091841;28;20029;-71
2023/06/15 05:44:55;;;;;;;6.18;4.32;;;16.70;99.90;;;;;;5057555;28;20040;-71
2023/06/15 05:47:21;;;;;;;4.45;3.70;;;16.80;99.90;;;;;;5052294;28;20089;-78
2023/06/15 05:49:47;;;;;;;5.28;4.25;;;16.90;99.90;;;;;;5081658;28;20045;-76
2023/06/15 05:52:14;;;;;;;8.05;4.20;;;16.90;99.90;;;;;;5053274;28;20140;-78
2023/06/15 05:54:44;;;;;;;5.88;3.55;;;17.00;99.90;;;;;;5059632;28;20411;-78
2023/06/15 05:57:12;;;;;;;6.45;4.00;;;17.10;99.90;;;;;;5052075;28;20048;-75
2023/06/15 05:59:38;;;;;;;4.55;3.42;;;17.20;99.90;;;;;;5056769;28;20052;-76
2023/06/15 06:02:04;;;;;;;3.88;3.20;;;17.30;99.90;;;;;;5062367;28;20048;-71
2023/06/15 06:04:30;;;;;;;4.30;3.40;;;17.30;99.90;;;;;;5065852;28;20055;-79
2023/06/15 06:06:56;;;;;;;4.45;3.20;;;17.50;99.90;;;;;;5051756;28;20534;-69
2023/06/15 06:09:22;;;;;;;4.13;3.40;;;17.70;99.90;;;;;;5068356;28;20048;-76
2023/06/15 06:11:48;;;;;;;5.88;3.20;;;17.70;99.90;;;;;;5033830;28;20033;-78
2023/06/15 06:14:15;;;;;;;4.32;3.75;;;17.80;99.90;;;;;;5048430;28;20466;-73
2023/06/15 06:16:41;;;;;;;6.97;3.00;;;17.80;99.90;;;;;;5031838;28;20045;-74
2023/06/15 06:19:07;;;;;;;5.65;3.42;;;18.00;99.90;;;;;;5062447;28;20047;-75
2023/06/15 06:21:32;;;;;;;4.53;2.88;;;18.20;99.90;;;;;;5051646;28;20040;-72
2023/06/15 06:23:59;;;;;;;3.35;3.05;;;18.30;99.90;;;;;;5066985;28;20045;-73
2023/06/15 06:26:25;;;;;;;4.57;2.83;;;18.50;99.90;;;;;;5048156;28;20040;-69
2023/06/15 06:28:52;;;;;;;3.58;3.10;;;18.60;99.90;;;;;;5052212;28;20040;-75
2023/06/15 06:31:17;;;;;;;2.63;2.30;;;18.80;99.90;;;;;;5051421;28;20057;-75
2023/06/15 06:33:43;;;;;;;4.05;2.78;;;18.90;99.90;;;;;;5061661;28;20674;-74
2023/06/15 06:36:09;;;;;;;2.72;2.30;;;19.10;99.90;;;;;;5100982;28;20036;-74
2023/06/15 06:38:35;;;;;;;4.43;2.67;;;19.30;99.90;;;;;;5051468;28;20064;-79
2023/06/15 06:41:01;;;;;;;3.20;2.40;;;19.50;99.90;;;;;;5034550;28;20037;-77
2023/06/15 06:43:27;;;;;;;5.80;2.85;;;19.70;99.90;;;;;;5050487;28;20130;-77
2023/06/15 06:45:53;;;;;;;4.03;2.60;;;19.90;99.90;;;;;;5034412;28;20047;-74
2023/06/15 06:48:19;;;;;;;4.85;2.90;;;20.10;93.60;;;;;;5067599;28;20032;-72
2023/06/15 06:50:45;;;;;;;3.17;2.63;;;20.40;99.90;;;;;;5067786;28;20055;-77
2023/06/15 06:53:12;;;;;;;5.93;2.33;;;20.50;99.90;;;;;;5049497;28;20404;-72
2023/06/15 06:55:37;;;;;;;4.00;2.40;;;20.90;99.90;;;;;;5067539;28;20053;-74
2023/06/15 06:58:04;;;;;;;2.55;2.35;;;21.00;99.90;;;;;;5067160;28;20044;-76
2023/06/15 07:00:30;;;;;;;4.68;2.50;;;21.10;99.90;;;;;;5057794;28;20048;-73
2023/06/15 07:02:59;;;;;;;4.05;3.03;;;21.20;99.50;;;;;;5047697;28;20154;-72
2023/06/15 07:05:25;;;;;;;7.18;2.58;;;21.40;99.90;;;;;;5031379;28;20522;-74
2023/06/15 07:07:50;;;;;;;2.90;2.60;;;21.50;1.00;;;;;;5041968;28;20178;-73
2023/06/15 07:10:16;;;;;;;3.78;2.47;;;21.60;99.90;;;;;;5031427;28;20051;-74
2023/06/15 07:12:42;;;;;;;4.10;2.53;;;21.80;1.00;;;;;;5031182;28;20806;-73
2023/06/15 07:15:08;;;;;;;2.95;2.40;;;22.00;99.90;;;;;;5064269;28;20048;-74
2023/06/15 07:17:33;;;;;;;3.03;2.30;;;22.10;99.90;;;;;;5033807;28;20122;-76
2023/06/15 07:19:59;;;;;;;3.90;2.50;;;22.20;1.00;;;;;;5067768;28;20128;-73
2023/06/15 07:22:25;;;;;;;3.35;2.33;;;22.50;1.00;;;;;;5084780;28;20492;-77
2023/06/15 07:24:51;;;;;;;6.32;2.63;;;22.50;99.90;;;;;;5090330;28;20036;-70
2023/06/15 07:27:18;;;;;;;2.70;2.33;;;22.60;20.50;;;;;;5038230;28;20138;-73
2023/06/15 07:29:45;;;;;;;4.38;2.47;;;22.40;99.90;;;;;;5067776;28;20063;-75
2023/06/15 07:32:10;;;;;;;6.28;3.00;;;22.60;1.00;;;;;;5050844;28;20037;-70
2023/06/15 07:34:36;;;;;;;5.30;2.47;;;22.60;99.90;;;;;;5043900;28;20068;-73
2023/06/15 07:37:02;;;;;;;4.72;2.65;;;22.60;99.90;;;;;;5051219;28;20412;-72
2023/06/15 07:39:29;;;;;;;3.90;2.65;;;22.60;99.90;;;;;;5051371;28;20150;-74
2023/06/15 07:41:55;;;;;;;6.63;2.30;;;22.60;74.70;;;;;;5034168;28;20043;-74
2023/06/15 07:44:21;;;;;;;4.97;2.30;;;22.70;1.00;;;;;;5101409;28;20048;-72
2023/06/15 07:46:47;;;;;;;2.90;2.38;;;22.70;1.00;;;;;;5053445;28;20048;-72
2023/06/15 07:49:12;;;;;;;2.75;2.38;;;22.60;99.90;;;;;;5070926;28;20036;-72
2023/06/15 07:51:38;;;;;;;4.35;2.85;;;22.70;99.90;;;;;;5070924;28;20135;-71
2023/06/15 07:54:04;;;;;;;3.90;2.58;;;22.60;99.90;;;;;;5053897;28;20381;-72
2023/06/15 07:56:30;;;;;;;3.40;2.63;;;22.50;56.40;;;;;;5070134;28;20468;-72
2023/06/15 07:58:55;;;;;;;5.50;2.97;;;22.50;26.80;;;;;;5070644;28;20062;-72
2023/06/15 08:01:21;;;;;;;2.35;2.13;;;22.60;69.70;;;;;;5034313;28;20083;-70
2023/06/15 08:03:47;;;;;;;2.45;2.17;;;22.70;17.50;;;;;;5034188;28;20045;-71
2023/06/15 08:06:12;;;;;;;4.07;2.53;;;22.70;1.00;;;;;;5055626;28;20072;-73
2023/06/15 08:08:38;;;;;;;6.10;3.05;;;22.70;1.00;;;;;;5053451;28;20043;-70
2023/06/15 08:11:07;;;;;;;3.72;2.40;;;22.80;1.00;;;;;;5070385;28;20044;-71
2023/06/15 08:13:33;;;;;;;4.63;2.40;;;23.00;1.00;;;;;;5070807;28;20559;-73
2023/06/15 08:15:59;;;;;;;3.85;2.65;;;23.10;1.00;;;;;;5052830;28;20044;-70
2023/06/15 08:18:26;;;;;;;3.30;2.78;;;23.10;1.00;;;;;;5033147;28;20098;-69
2023/06/15 08:20:52;;;;;;;2.45;2.22;;;23.20;1.00;;;;;;5069679;28;20048;-71
2023/06/15 08:23:18;;;;;;;3.58;2.80;;;23.20;1.00;;;;;;5101872;28;20553;-72
2023/06/15 08:25:43;;;;;;;4.15;2.85;;;23.20;1.00;;;;;;5052649;28;20044;-72
2023/06/15 08:28:09;;;;;;;4.75;2.90;;;23.30;1.00;;;;;;5051118;28;20083;-70
2023/06/15 08:30:35;;;;;;;4.20;2.78;;;23.00;1.00;;;;;;5069240;28;20047;-69
2023/06/15 08:33:01;;;;;;;4.95;2.42;;;23.00;1.00;;;;;;5051755;28;20388;-71
2023/06/15 08:35:26;;;;;;;4.55;2.55;;;23.10;1.00;;;;;;5068192;28;20037;-69
2023/06/15 08:37:52;;;;;;;3.90;2.47;;;23.20;1.00;;;;;;5068528;28;20674;-69
2023/06/15 08:40:19;;;;;;;4.75;2.72;;;23.40;1.00;;;;;;5069207;28;20132;-70
2023/06/15 08:42:45;;;;;;;3.30;2.55;;;23.40;99.90;;;;;;5069297;28;20048;-72
2023/06/15 08:45:12;;;;;;;2.78;2.50;;;23.40;1.00;;;;;;5060819;28;20075;-71
2023/06/15 08:47:39;;;;;;;3.60;2.50;;;23.40;1.00;;;;;;5033071;28;20106;-69
2023/06/15 08:50:06;;;;;;;3.28;2.97;;;23.70;1.00;;;;;;5048738;28;20090;-72
2023/06/15 08:52:36;;;;;;;2.90;2.60;;;23.60;99.90;;;;;;5067307;28;20063;-68
2023/06/15 08:55:03;;;;;;;4.35;3.10;;;23.90;99.90;;;;;;5068496;28;20047;-69
2023/06/15 08:57:30;;;;;;;2.90;2.53;;;23.70;99.90;;;;;;5067386;28;20036;-69
2023/06/15 08:59:56;;;;;;;5.32;3.10;;;23.90;99.90;;;;;;5049378;28;20409;-68
2023/06/15 09:02:24;;;;;;;3.67;2.80;;;24.10;99.90;;;;;;5048809;28;20182;-70
2023/06/15 09:04:51;;;;;;;2.97;2.30;;;24.20;99.90;;;;;;5048827;28;20060;-69
2023/06/15 09:07:21;;;;;;;4.57;2.83;;;24.60;99.90;;;;;;5032764;28;20385;-70
2023/06/15 09:10:15;;;;;;;5.82;2.70;;;24.40;99.90;;;;;;5080608;28;20110;-71
2023/06/15 09:12:46;;;;;;;4.93;2.70;;;24.30;99.90;;;;;;5069370;28;20083;-70
2023/06/15 09:15:21;;;;;;;3.13;2.80;;;24.90;99.90;;;;;;5069429;28;20040;-71
2023/06/15 09:17:54;;;;;;;4.38;2.85;;;25.00;99.90;;;;;;5067463;28;20449;-71
2023/06/15 09:20:21;;;;;;;2.50;2.30;;;25.50;99.90;;;;;;5102397;28;20531;-68
2023/06/15 09:22:47;;;;;;;3.20;2.47;;;25.50;99.90;;;;;;5068924;28;20036;-72
2023/06/15 09:25:17;;;;;;;3.35;2.55;;;25.90;99.90;;;;;;5067620;28;20503;-70
2023/06/15 09:28:06;;;;;;;3.40;2.78;;;26.40;99.90;;;;;;5046067;28;20458;-69
2023/06/15 09:30:33;;;;;;;5.15;2.40;;;25.60;99.90;;;;;;5049109;28;20045;-70
2023/06/15 09:33:18;;;;;;;5.40;2.28;;;25.40;99.90;;;;;;5048770;28;20433;-72
2023/06/15 09:36:00;;;;;;;3.38;2.42;;;26.10;99.90;;;;;;5049049;28;20090;-73
2023/06/15 09:38:28;;;;;;;6.72;2.50;;;26.80;99.90;;;;;;5048163;28;20044;-69
2023/06/15 09:40:54;;;;;;;5.85;2.78;;;26.60;99.90;;;;;;5048990;28;20456;-69
2023/06/15 09:43:20;;;;;;;3.40;2.83;;;26.30;99.90;;;;;;5050651;28;20049;-69
2023/06/15 09:45:53;;;;;;;5.55;2.35;;;26.20;99.90;;;;;;5052440;28;20424;-70
2023/06/15 09:48:20;;;;;;;2.65;2.45;;;26.90;99.90;;;;;;5051402;28;20040;-72
2023/06/15 09:50:50;;;;;;;7.57;2.72;;;26.80;99.90;;;;;;5060049;28;20409;-71
2023/06/15 09:53:17;;;;;;;2.85;2.35;;;26.20;99.90;;;;;;5068076;28;20082;-71
2023/06/15 09:55:45;;;;;;;4.13;2.67;;;27.10;99.90;;;;;;5068153;28;20675;-72
2023/06/15 09:58:11;;;;;;;3.65;2.20;;;27.60;99.90;;;;;;5051175;28;20094;-72
2023/06/15 10:00:37;;;;;;;2.58;2.22;;;27.10;99.90;;;;;;5064928;28;20137;-72
2023/06/15 10:03:06;;;;;;;4.07;2.58;;;27.20;99.90;;;;;;5050783;28;20040;-74
2023/06/15 10:05:34;;;;;;;3.72;2.75;;;26.80;99.90;;;;;;5067878;28;20037;-72
2023/06/15 10:08:04;;;;;;;3.70;2.75;;;27.10;99.90;;;;;;5067556;28;20044;-72
2023/06/15 10:10:30;;;;;;;4.05;2.42;;;26.50;99.90;;;;;;5070665;28;20112;-71
2023/06/15 10:13:00;;;;;;;2.55;2.35;;;27.60;99.90;;;;;;5067225;28;20135;-70
2023/06/15 10:15:28;;;;;;;3.20;2.20;;;28.40;99.90;;;;;;5067044;28;20040;-75
2023/06/15 10:17:56;;;;;;;6.22;2.60;;;28.00;99.90;;;;;;5068140;28;20048;-74
2023/06/15 10:20:26;;;;;;;3.38;2.30;;;28.10;99.90;;;;;;5062310;28;20040;-73
2023/06/15 10:23:04;;;;;;;2.70;2.20;;;28.70;99.90;;;;;;5048190;28;20573;-75
2023/06/15 10:25:30;;;;;;;3.67;2.78;;;27.80;99.90;;;;;;5056394;28;20036;-71
2023/06/15 10:27:57;;;;;;;2.90;2.60;;;28.10;99.90;;;;;;5067796;28;20044;-72
2023/06/15 10:30:49;;;;;;;3.95;2.67;;;27.40;99.90;;;;;;5066714;28;20041;-72
2023/06/15 10:33:40;;;;;;;3.00;2.70;;;28.00;99.90;;;;;;5065143;28;20044;-70
2023/06/15 10:36:32;;;;;;;4.45;2.45;;;27.60;99.60;;;;;;5048121;28;20052;-74
2023/06/15 10:39:03;;;;;;;2.90;2.63;;;28.00;97.20;;;;;;5067989;28;20079;-76
2023/06/15 10:41:29;;;;;;;2.80;2.38;;;28.20;99.90;;;;;;5067257;28;20040;-73
2023/06/15 10:44:00;;;;;;;4.97;3.22;;;27.80;99.10;;;;;;5067996;28;20571;-73
2023/06/15 10:46:30;;;;;;;4.28;2.53;;;27.40;95.70;;;;;;5067819;28;20470;-76
2023/06/15 10:49:06;;;;;;;3.55;2.80;;;27.60;99.90;;;;;;5067490;28;20485;-74
2023/06/15 10:51:51;;;;;;;6.20;2.50;;;28.10;99.90;;;;;;5071704;28;20047;-71
2023/06/15 10:54:22;;;;;;;3.42;2.45;;;28.60;99.70;;;;;;5074120;28;20368;-72
2023/06/15 10:56:50;;;;;;;2.97;2.45;;;28.50;93.70;;;;;;5058797;28;20037;-71
2023/06/15 10:59:35;;;;;;;4.45;2.47;;;28.40;99.90;;;;;;5021054;28;20072;-72
2023/06/15 11:02:01;;;;;;;2.60;2.40;;;28.40;84.20;;;;;;5054849;28;20049;-74
2023/06/15 11:04:34;;;;;;;4.15;2.85;;;28.50;92.10;;;;;;5053799;28;20048;-72
2023/06/15 11:07:02;;;;;;;2.95;2.75;;;28.60;92.10;;;;;;5050308;28;20047;-72
2023/06/15 11:09:35;;;;;;;3.38;2.60;;;28.70;92.10;;;;;;5073232;28;20043;-73
2023/06/15 11:12:01;;;;;;;2.60;2.40;;;28.50;67.60;;;;;;5057731;28;20036;-74
2023/06/15 11:14:26;;;;;;;2.95;2.50;;;28.80;91.50;;;;;;5073707;28;20488;-74
2023/06/15 11:17:03;;;;;;;4.90;2.75;;;28.20;90.70;;;;;;5064649;28;20037;-75
2023/06/15 11:19:29;;;;;;;3.60;2.40;;;27.70;69.90;;;;;;5053788;28;20045;-73
2023/06/15 11:22:06;;;;;;;4.20;2.78;;;28.60;88.30;;;;;;5054196;28;20041;-69
2023/06/15 11:24:34;;;;;;;3.85;2.33;;;28.80;79.20;;;;;;5038147;28;20048;-72
2023/06/15 11:27:09;;;;;;;4.13;2.67;;;28.40;49.60;;;;;;5054676;28;20048;-71
2023/06/15 11:29:42;;;;;;;2.30;2.10;;;28.70;63.00;;;;;;5053965;28;20040;-70
2023/06/15 11:32:12;;;;;;;2.90;2.42;;;28.40;77.60;;;;;;5053814;28;20132;-73
2023/06/15 11:34:39;;;;;;;5.63;3.30;;;28.80;86.80;;;;;;5076332;28;20028;-73
2023/06/15 11:37:12;;;;;;;2.83;2.42;;;28.60;91.30;;;;;;5074439;28;20036;-72
2023/06/15 11:39:41;;;;;;;2.90;2.57;;;28.90;91.30;;;;;;5073867;28;20123;-74
2023/06/15 11:42:09;;;;;;;4.38;2.60;;;29.10;91.30;;;;;;5072263;28;20436;-74
2023/06/15 11:44:41;;;;;;;2.35;2.15;;;29.10;66.70;;;;;;5073282;28;20066;-73
2023/06/15 11:47:11;;;;;;;4.22;2.58;;;29.20;71.00;;;;;;5056947;28;20036;-72
2023/06/15 11:49:37;;;;;;;4.07;2.33;;;28.90;79.80;;;;;;5057607;28;20131;-70
2023/06/15 11:52:04;;;;;;;3.00;2.60;;;29.50;83.70;;;;;;5049140;28;20136;-72
2023/06/15 11:54:30;;;;;;;2.75;2.47;;;29.40;58.50;;;;;;5053709;28;20476;-75
2023/06/15 11:57:00;;;;;;;3.75;2.60;;;28.30;64.20;;;;;;5037274;28;20048;-72
2023/06/15 11:59:26;;;;;;;3.00;2.40;;;28.00;65.20;;;;;;5055469;28;20044;-73
2023/06/15 12:01:53;;;;;;;3.08;2.63;;;28.20;60.60;;;;;;5054317;28;20029;-73
2023/06/15 12:04:19;;;;;;;2.97;2.30;;;28.40;66.30;;;;;;5069736;28;20055;-69
2023/06/15 12:06:48;;;;;;;3.20;2.47;;;28.60;62.60;;;;;;5053442;28;20090;-71
2023/06/15 12:09:19;;;;;;;2.63;2.15;;;28.50;47.80;;;;;;5070000;28;20412;-72
2023/06/15 12:11:45;;;;;;;2.50;2.30;;;27.80;30.60;;;;;;5070352;28;20477;-72
2023/06/15 12:14:20;;;;;;;4.00;2.80;;;28.60;29.50;;;;;;5050530;28;20128;-71
2023/06/15 12:16:50;;;;;;;5.32;2.83;;;27.80;27.30;;;;;;5068469;28;20080;-75
2023/06/15 12:19:16;;;;;;;2.72;2.33;;;28.80;27.80;;;;;;5033160;28;20051;-72
2023/06/15 12:21:43;;;;;;;3.63;2.65;;;29.00;32.80;;;;;;5033563;28;20044;-72
2023/06/15 12:24:17;;;;;;;2.70;2.13;;;29.00;24.80;;;;;;5066876;28;20041;-74
2023/06/15 12:26:51;;;;;;;3.50;3.20;;;28.50;46.10;;;;;;5033671;28;20047;-71
2023/06/15 12:29:19;;;;;;;4.10;3.25;;;28.00;53.70;;;;;;5050828;28;20045;-73
2023/06/15 12:31:49;;;;;;;5.47;2.60;;;28.30;57.10;;;;;;5050619;28;20033;-72
2023/06/15 12:34:24;;;;;;;3.03;2.53;;;28.40;63.30;;;;;;5035198;28;20397;-69
2023/06/15 12:36:50;;;;;;;3.42;2.95;;;28.50;66.40;;;;;;5050376;28;20047;-70
2023/06/15 12:39:18;;;;;;;2.47;2.28;;;28.60;58.40;;;;;;5049211;28;20044;-74
2023/06/15 12:41:44;;;;;;;5.32;3.13;;;28.90;51.00;;;;;;5033230;28;20045;-71
2023/06/15 12:44:11;;;;;;;7.20;2.70;;;28.70;48.10;;;;;;5059590;28;20059;-71
2023/06/15 12:46:39;;;;;;;3.90;2.70;;;28.40;66.50;;;;;;5052941;28;20040;-71
2023/06/15 12:49:09;;;;;;;3.03;2.70;;;27.80;63.40;;;;;;5062811;28;20055;-74
2023/06/15 12:51:35;;;;;;;3.55;2.60;;;27.00;65.10;;;;;;5049065;28;20092;-70